Time,TemperatureF,DewpointF,PressureIn,WindDirection,WindDirectionDegrees,WindSpeedMPH,WindSpeedGustMPH,Humidity,HourlyPrecipIn,Conditions,Clouds,dailyrainin,SolarRadiationWatts/m^2,SoftwareType,DateUTC
2013-01-24 00:00:00,42.1,35.8,30.16,SW,215,0.0,3.0,78,0.00,,,0.00,0.0,meteohub,2013-01-24 05:00:00,
2013-01-24 00:01:00,42.1,35.4,30.16,SW,215,0.0,3.0,77,0.00,,,0.00,0.0,meteohub,2013-01-24 05:01:00,
2013-01-24 00:02:00,42.3,35.6,30.16,SW,215,0.0,3.0,77,0.00,,,0.00,0.0,meteohub,2013-01-24 05:02:00,
2013-01-24 00:03:00,42.3,35.6,30.16,SW,215,0.0,3.0,77,0.00,,,0.00,0.0,meteohub,2013-01-24 05:03:00,
2013-01-24 00:08:00,42.6,35.6,30.15,SW,215,0.0,2.0,76,0.00,,,0.00,0.0,meteohub,2013-01-24 05:08:00,
2013-01-24 00:13:00,42.4,35.4,30.16,SW,215,0.0,2.0,76,0.00,,,0.00,0.0,meteohub,2013-01-24 05:13:00,
2013-01-24 00:18:00,42.8,35.4,30.16,SW,215,0.0,2.0,75,0.00,,,0.00,0.0,meteohub,2013-01-24 05:18:00,
2013-01-24 00:23:00,42.8,35.4,30.15,SW,215,0.0,2.0,75,0.00,,,0.00,0.0,meteohub,2013-01-24 05:23:00,
2013-01-24 00:28:00,42.4,35.1,30.16,SW,215,0.0,2.0,75,0.00,,,0.00,0.0,meteohub,2013-01-24 05:28:00,
2013-01-24 00:33:00,43.0,35.6,30.15,SW,215,0.0,1.0,75,0.00,,,0.00,0.0,meteohub,2013-01-24 05:33:00,
2013-01-24 00:38:00,43.2,35.4,30.15,SW,215,0.0,2.0,74,0.00,,,0.00,0.0,meteohub,2013-01-24 05:38:00,
2013-01-24 00:43:00,43.3,35.6,30.15,SW,215,1.0,2.0,74,0.00,,,0.00,0.0,meteohub,2013-01-24 05:43:00,
2013-01-24 00:48:00,43.3,35.6,30.15,SW,215,1.0,2.0,74,0.00,,,0.00,0.0,meteohub,2013-01-24 05:48:00,
2013-01-24 00:53:00,43.2,35.4,30.15,SW,215,0.0,2.0,74,0.00,,,0.00,0.0,meteohub,2013-01-24 05:53:00,
2013-01-24 00:58:00,43.0,35.6,30.14,SW,215,0.0,2.0,75,0.00,,,0.00,0.0,meteohub,2013-01-24 05:58:00,
2013-01-24 01:03:00,43.0,35.6,30.14,SW,215,0.0,1.0,75,0.00,,,0.00,0.0,meteohub,2013-01-24 06:03:00,
2013-01-24 01:08:00,42.8,35.4,30.14,SW,228,1.0,2.0,75,0.00,,,0.00,0.0,meteohub,2013-01-24 06:08:00,
2013-01-24 01:13:00,42.8,35.4,30.14,SW,229,0.0,2.0,75,0.00,,,0.00,0.0,meteohub,2013-01-24 06:13:00,
2013-01-24 01:18:00,42.8,35.8,30.15,South,181,0.0,2.0,76,0.00,,,0.00,0.0,meteohub,2013-01-24 06:18:00,
2013-01-24 01:23:00,43.2,35.8,30.15,South,187,0.0,2.0,75,0.00,,,0.00,0.0,meteohub,2013-01-24 06:23:00,
2013-01-24 01:28:00,43.5,36.1,30.14,SSE,160,2.0,2.0,75,0.00,,,0.00,0.0,meteohub,2013-01-24 06:28:00,
2013-01-24 01:33:00,44.1,36.3,30.14,WSW,246,2.0,4.0,74,0.00,,,0.00,0.0,meteohub,2013-01-24 06:33:00,
2013-01-24 01:38:00,44.4,36.7,30.14,West,263,2.0,4.0,74,0.00,,,0.00,0.0,meteohub,2013-01-24 06:38:00,
2013-01-24 01:44:00,44.6,36.5,30.14,South,188,3.0,4.0,73,0.00,,,0.00,0.0,meteohub,2013-01-24 06:44:00,
2013-01-24 01:49:00,45.0,36.9,30.14,South,186,1.0,4.0,73,0.00,,,0.00,0.0,meteohub,2013-01-24 06:49:00,
2013-01-24 01:54:00,45.5,37.4,30.14,SSW,213,3.0,6.0,73,0.00,,,0.00,0.0,meteohub,2013-01-24 06:54:00,
2013-01-24 01:59:00,45.7,37.6,30.14,SW,215,0.0,6.0,73,0.00,,,0.00,0.0,meteohub,2013-01-24 06:59:00,
2013-01-24 02:04:00,45.7,37.6,30.13,WSW,238,3.0,6.0,73,0.00,,,0.00,0.0,meteohub,2013-01-24 07:04:00,
2013-01-24 02:09:00,46.0,37.6,30.13,West,275,2.0,6.0,72,0.00,,,0.00,0.0,meteohub,2013-01-24 07:09:00,
2013-01-24 02:14:00,46.8,38.3,30.13,SW,223,3.0,6.0,72,0.00,,,0.00,0.0,meteohub,2013-01-24 07:14:00,
2013-01-24 02:19:00,47.3,38.7,30.13,WSW,243,4.0,6.0,72,0.00,,,0.00,0.0,meteohub,2013-01-24 07:19:00,
2013-01-24 02:24:00,47.8,38.8,30.12,WSW,240,4.0,6.0,71,0.00,,,0.00,0.0,meteohub,2013-01-24 07:24:00,
2013-01-24 02:29:00,48.0,39.0,30.12,West,268,3.0,5.0,71,0.00,,,0.00,0.0,meteohub,2013-01-24 07:29:00,
2013-01-24 02:34:00,48.4,39.0,30.12,South,178,2.0,6.0,70,0.00,,,0.00,0.0,meteohub,2013-01-24 07:34:00,
2013-01-24 02:39:00,48.4,39.4,30.12,WSW,244,3.0,7.0,71,0.00,,,0.00,0.0,meteohub,2013-01-24 07:39:00,
2013-01-24 02:44:00,48.6,39.2,30.12,SW,223,1.0,9.0,70,0.00,,,0.00,0.0,meteohub,2013-01-24 07:44:00,
2013-01-24 02:49:00,48.4,39.4,30.12,SW,221,4.0,10.0,71,0.00,,,0.00,0.0,meteohub,2013-01-24 07:49:00,
2013-01-24 02:54:00,48.4,39.4,30.12,South,188,3.0,10.0,71,0.00,,,0.00,0.0,meteohub,2013-01-24 07:54:00,
2013-01-24 02:59:00,48.0,39.0,30.12,WSW,258,2.0,6.0,71,0.00,,,0.00,0.0,meteohub,2013-01-24 07:59:00,
2013-01-24 03:04:00,48.2,39.2,30.11,West,278,4.0,6.0,71,0.00,,,0.00,0.0,meteohub,2013-01-24 08:04:00,
2013-01-24 03:09:00,48.4,39.4,30.11,WSW,256,2.0,8.0,71,0.00,,,0.00,0.0,meteohub,2013-01-24 08:09:00,
2013-01-24 03:14:00,48.0,39.4,30.11,WSW,251,2.0,9.0,72,0.00,,,0.00,0.0,meteohub,2013-01-24 08:14:00,
2013-01-24 03:19:00,48.0,39.4,30.10,SW,232,2.0,9.0,72,0.00,,,0.00,0.0,meteohub,2013-01-24 08:19:00,
2013-01-24 03:24:00,48.2,39.6,30.10,SSW,205,3.0,6.0,72,0.00,,,0.00,0.0,meteohub,2013-01-24 08:24:00,
2013-01-24 03:29:00,48.2,39.6,30.11,WSW,252,2.0,8.0,72,0.00,,,0.00,0.0,meteohub,2013-01-24 08:29:00,
2013-01-24 03:34:00,48.0,39.4,30.11,West,272,1.0,8.0,72,0.00,,,0.00,0.0,meteohub,2013-01-24 08:34:00,
2013-01-24 03:39:00,48.0,39.7,30.11,SSW,198,3.0,8.0,73,0.00,,,0.00,0.0,meteohub,2013-01-24 08:39:00,
2013-01-24 03:44:00,48.0,39.7,30.10,West,274,1.0,8.0,73,0.00,,,0.00,0.0,meteohub,2013-01-24 08:44:00,
2013-01-24 03:49:00,48.0,39.7,30.10,SW,215,1.0,8.0,73,0.00,,,0.00,0.0,meteohub,2013-01-24 08:49:00,
2013-01-24 03:54:00,48.2,39.9,30.10,WNW,286,0.0,8.0,73,0.00,,,0.00,0.0,meteohub,2013-01-24 08:54:00,
2013-01-24 03:59:00,48.4,40.1,30.09,SSW,205,1.0,8.0,73,0.00,,,0.00,0.0,meteohub,2013-01-24 08:59:00,
2013-01-24 04:04:00,48.2,39.9,30.09,WSW,247,1.0,7.0,73,0.00,,,0.00,0.0,meteohub,2013-01-24 09:04:00,
2013-01-24 04:09:00,48.4,40.1,30.09,SSW,211,3.0,7.0,73,0.00,,,0.00,0.0,meteohub,2013-01-24 09:09:00,
2013-01-24 04:14:00,48.4,40.1,30.09,SW,215,3.0,7.0,73,0.00,,,0.00,0.0,meteohub,2013-01-24 09:14:00,
2013-01-24 04:20:00,48.2,39.9,30.09,SW,223,1.0,7.0,73,0.00,,,0.00,0.0,meteohub,2013-01-24 09:20:00,
2013-01-24 04:25:00,48.0,40.1,30.08,WSW,240,3.0,8.0,74,0.00,,,0.00,0.0,meteohub,2013-01-24 09:25:00,
2013-01-24 04:30:00,48.0,40.1,30.08,SSW,213,3.0,8.0,74,0.00,,,0.00,0.0,meteohub,2013-01-24 09:30:00,
2013-01-24 04:35:00,47.8,39.9,30.08,South,173,4.0,6.0,74,0.00,,,0.00,0.0,meteohub,2013-01-24 09:35:00,
2013-01-24 04:40:00,47.7,40.1,30.08,SSW,194,3.0,5.0,75,0.00,,,0.00,0.0,meteohub,2013-01-24 09:40:00,
2013-01-24 04:45:00,47.5,39.9,30.08,SSW,209,1.0,5.0,75,0.00,,,0.00,0.0,meteohub,2013-01-24 09:45:00,
2013-01-24 04:50:00,47.7,40.1,30.08,SW,227,3.0,4.0,75,0.00,,,0.00,0.0,meteohub,2013-01-24 09:50:00,
2013-01-24 04:55:00,47.7,40.1,30.08,SW,232,1.0,4.0,75,0.00,,,0.00,0.0,meteohub,2013-01-24 09:55:00,
2013-01-24 05:00:00,47.5,40.3,30.08,WSW,243,2.0,4.0,76,0.00,,,0.00,0.0,meteohub,2013-01-24 10:00:00,
2013-01-24 05:05:00,47.7,40.5,30.08,South,184,0.0,4.0,76,0.00,,,0.00,0.0,meteohub,2013-01-24 10:05:00,
2013-01-24 05:10:00,47.8,40.6,30.08,West,271,2.0,4.0,76,0.00,,,0.00,0.0,meteohub,2013-01-24 10:10:00,
2013-01-24 05:15:00,48.0,40.5,30.08,West,277,3.0,4.0,75,0.00,,,0.00,0.0,meteohub,2013-01-24 10:15:00,
2013-01-24 05:20:00,48.0,40.5,30.08,South,189,3.0,5.0,75,0.00,,,0.00,0.0,meteohub,2013-01-24 10:20:00,
2013-01-24 05:25:00,48.2,40.6,30.08,SW,221,3.0,5.0,75,0.00,,,0.00,0.0,meteohub,2013-01-24 10:25:00,
2013-01-24 05:30:00,48.4,40.8,30.08,WNW,296,2.0,5.0,75,0.00,,,0.00,0.0,meteohub,2013-01-24 10:30:00,
2013-01-24 05:35:00,48.2,40.6,30.09,West,273,2.0,5.0,75,0.00,,,0.00,0.0,meteohub,2013-01-24 10:35:00,
2013-01-24 05:40:00,48.2,41.0,30.09,SSW,194,2.0,5.0,76,0.00,,,0.00,0.0,meteohub,2013-01-24 10:40:00,
2013-01-24 05:45:00,48.6,41.4,30.08,West,275,1.0,8.0,76,0.00,,,0.00,0.0,meteohub,2013-01-24 10:45:00,
2013-01-24 05:50:00,48.6,41.4,30.09,SSW,207,3.0,8.0,76,0.00,,,0.00,0.0,meteohub,2013-01-24 10:50:00,
2013-01-24 05:55:00,48.7,41.5,30.08,WSW,255,1.0,8.0,76,0.00,,,0.00,0.0,meteohub,2013-01-24 10:55:00,
2013-01-24 06:00:00,48.9,41.7,30.09,South,178,0.0,8.0,76,0.00,,,0.00,0.0,meteohub,2013-01-24 11:00:00,
2013-01-24 06:05:00,49.1,41.9,30.09,WSW,255,2.0,9.0,76,0.00,,,0.00,0.0,meteohub,2013-01-24 11:05:00,
2013-01-24 06:10:00,49.3,42.1,30.09,SW,236,1.0,9.0,76,0.00,,,0.00,0.0,meteohub,2013-01-24 11:10:00,
2013-01-24 06:15:00,48.9,41.7,30.10,WNW,300,3.0,9.0,76,0.00,,,0.00,0.0,meteohub,2013-01-24 11:15:00,
2013-01-24 06:20:00,48.9,42.1,30.09,West,262,1.0,7.0,77,0.00,,,0.00,0.0,meteohub,2013-01-24 11:20:00,
2013-01-24 06:25:00,48.7,41.9,30.09,WNW,300,1.0,7.0,77,0.00,,,0.00,0.0,meteohub,2013-01-24 11:25:00,
2013-01-24 06:30:00,48.7,41.9,30.10,NNW,331,0.0,7.0,77,0.00,,,0.00,0.0,meteohub,2013-01-24 11:30:00,
2013-01-24 06:35:00,48.4,41.9,30.10,SSW,207,2.0,4.0,78,0.00,,,0.00,0.0,meteohub,2013-01-24 11:35:00,
2013-01-24 06:40:00,48.4,41.9,30.10,West,261,1.0,7.0,78,0.00,,,0.00,0.0,meteohub,2013-01-24 11:40:00,
2013-01-24 06:45:00,48.4,41.9,30.09,SW,227,2.0,7.0,78,0.00,,,0.00,0.0,meteohub,2013-01-24 11:45:00,
2013-01-24 06:51:00,48.0,41.5,30.09,WSW,247,1.0,7.0,78,0.00,,,0.00,0.0,meteohub,2013-01-24 11:51:00,
2013-01-24 06:56:00,47.8,41.7,30.10,WSW,240,4.0,5.0,79,0.00,,,0.00,0.0,meteohub,2013-01-24 11:56:00,
2013-01-24 07:01:00,48.0,41.9,30.10,SSW,213,1.0,6.0,79,0.00,,,0.00,0.0,meteohub,2013-01-24 12:01:00,
2013-01-24 07:06:00,47.8,41.7,30.10,WSW,249,1.0,6.0,79,0.00,,,0.00,0.0,meteohub,2013-01-24 12:06:00,
2013-01-24 07:11:00,47.7,41.7,30.09,WSW,244,2.0,6.0,80,0.00,,,0.00,0.0,meteohub,2013-01-24 12:11:00,
2013-01-24 07:16:00,47.7,41.7,30.09,SSW,202,2.0,5.0,80,0.00,,,0.00,0.0,meteohub,2013-01-24 12:16:00,
2013-01-24 07:21:00,47.7,42.1,30.09,SW,215,2.0,5.0,81,0.00,,,0.00,0.0,meteohub,2013-01-24 12:21:00,
2013-01-24 07:26:00,47.7,42.1,30.09,SSW,198,3.0,5.0,81,0.00,,,0.00,7.0,meteohub,2013-01-24 12:26:00,
2013-01-24 07:31:00,47.8,42.3,30.10,WSW,257,3.0,6.0,81,0.00,,,0.00,9.0,meteohub,2013-01-24 12:31:00,
2013-01-24 07:36:00,48.0,42.4,30.10,WSW,242,1.0,6.0,81,0.00,,,0.00,12.0,meteohub,2013-01-24 12:36:00,
2013-01-24 07:41:00,48.0,42.4,30.10,NW,312,2.0,6.0,81,0.00,,,0.00,18.0,meteohub,2013-01-24 12:41:00,
2013-01-24 07:46:00,48.2,42.6,30.10,WNW,284,3.0,4.0,81,0.00,,,0.00,23.0,meteohub,2013-01-24 12:46:00,
2013-01-24 07:51:00,48.4,42.8,30.10,WSW,257,4.0,4.0,81,0.00,,,0.00,28.0,meteohub,2013-01-24 12:51:00,
2013-01-24 07:56:00,48.6,43.0,30.11,West,267,3.0,5.0,81,0.00,,,0.00,49.0,meteohub,2013-01-24 12:56:00,
2013-01-24 08:01:00,48.7,43.2,30.11,WSW,243,3.0,6.0,81,0.00,,,0.00,60.0,meteohub,2013-01-24 13:01:00,
2013-01-24 08:06:00,49.3,43.3,30.11,WSW,240,6.0,6.0,80,0.00,,,0.00,65.0,meteohub,2013-01-24 13:06:00,
2013-01-24 08:11:00,49.6,43.7,30.11,WSW,250,1.0,7.0,80,0.00,,,0.00,70.0,meteohub,2013-01-24 13:11:00,
2013-01-24 08:16:00,50.0,44.1,30.11,SSW,192,4.0,7.0,80,0.00,,,0.00,77.0,meteohub,2013-01-24 13:16:00,
2013-01-24 08:21:00,50.4,44.1,30.11,WSW,243,1.0,7.0,79,0.00,,,0.00,84.0,meteohub,2013-01-24 13:21:00,
2013-01-24 08:26:00,50.7,44.4,30.12,SW,221,1.0,7.0,79,0.00,,,0.00,107.0,meteohub,2013-01-24 13:26:00,
2013-01-24 08:31:00,51.1,44.4,30.11,WNW,301,2.0,7.0,78,0.00,,,0.00,125.0,meteohub,2013-01-24 13:31:00,
2013-01-24 08:36:00,51.4,44.8,30.11,SW,218,3.0,9.0,78,0.00,,,0.00,158.0,meteohub,2013-01-24 13:36:00,
2013-01-24 08:41:00,51.8,44.8,30.12,WNW,291,1.0,9.0,77,0.00,,,0.00,139.0,meteohub,2013-01-24 13:41:00,
2013-01-24 08:46:00,52.2,45.1,30.12,West,268,2.0,9.0,77,0.00,,,0.00,192.0,meteohub,2013-01-24 13:46:00,
2013-01-24 08:51:00,52.5,45.1,30.12,SW,227,2.0,8.0,76,0.00,,,0.00,239.0,meteohub,2013-01-24 13:51:00,
2013-01-24 08:56:00,53.1,45.7,30.12,West,264,3.0,10.0,76,0.00,,,0.00,257.0,meteohub,2013-01-24 13:56:00,
2013-01-24 09:01:00,53.4,45.7,30.12,WNW,298,3.0,10.0,75,0.00,,,0.00,274.0,meteohub,2013-01-24 14:01:00,
2013-01-24 09:06:00,54.0,45.9,30.12,WSW,248,2.0,9.0,74,0.00,,,0.00,292.0,meteohub,2013-01-24 14:06:00,
2013-01-24 09:11:00,54.1,45.7,30.13,West,266,2.0,9.0,73,0.00,,,0.00,302.0,meteohub,2013-01-24 14:11:00,
2013-01-24 09:16:00,54.7,46.2,30.13,WSW,238,2.0,10.0,73,0.00,,,0.00,322.0,meteohub,2013-01-24 14:16:00,
2013-01-24 09:21:00,55.2,46.4,30.13,South,191,5.0,10.0,72,0.00,,,0.00,341.0,meteohub,2013-01-24 14:21:00,
2013-01-24 09:26:00,55.6,46.8,30.14,WNW,290,2.0,10.0,72,0.00,,,0.00,353.0,meteohub,2013-01-24 14:26:00,
2013-01-24 09:31:00,55.9,46.8,30.14,WSW,248,2.0,8.0,71,0.00,,,0.00,371.0,meteohub,2013-01-24 14:31:00,
2013-01-24 09:36:00,56.1,46.8,30.14,West,281,4.0,8.0,71,0.00,,,0.00,387.0,meteohub,2013-01-24 14:36:00,
2013-01-24 09:41:00,56.8,47.1,30.13,SW,229,1.0,8.0,70,0.00,,,0.00,401.0,meteohub,2013-01-24 14:41:00,
2013-01-24 09:46:00,57.6,46.8,30.13,SW,227,4.0,8.0,67,0.00,,,0.00,420.0,meteohub,2013-01-24 14:46:00,
2013-01-24 09:51:00,57.7,46.9,30.13,WSW,246,4.0,8.0,67,0.00,,,0.00,420.0,meteohub,2013-01-24 14:51:00,
2013-01-24 09:56:00,58.3,46.6,30.13,WNW,286,6.0,9.0,65,0.00,,,0.00,441.0,meteohub,2013-01-24 14:56:00,
2013-01-24 10:01:00,58.8,47.1,30.14,WNW,286,2.0,14.0,65,0.00,,,0.00,452.0,meteohub,2013-01-24 15:01:00,
2013-01-24 10:06:00,59.4,47.1,30.15,West,279,3.0,14.0,64,0.00,,,0.00,464.0,meteohub,2013-01-24 15:06:00,
2013-01-24 10:12:00,59.5,46.9,30.14,WNW,286,10.0,12.0,63,0.00,,,0.00,475.0,meteohub,2013-01-24 15:12:00,
2013-01-24 10:17:00,60.1,46.9,30.14,WSW,248,2.0,12.0,62,0.00,,,0.00,489.0,meteohub,2013-01-24 15:17:00,
2013-01-24 10:22:00,60.1,46.6,30.13,SW,215,5.0,12.0,61,0.00,,,0.00,499.0,meteohub,2013-01-24 15:22:00,
2013-01-24 10:27:00,59.7,46.2,30.14,WSW,249,5.0,11.0,61,0.00,,,0.00,508.0,meteohub,2013-01-24 15:27:00,
2013-01-24 10:32:00,60.1,46.2,30.14,West,278,3.0,13.0,60,0.00,,,0.00,524.0,meteohub,2013-01-24 15:32:00,
2013-01-24 10:37:00,60.4,46.4,30.14,WNW,290,3.0,13.0,60,0.00,,,0.00,536.0,meteohub,2013-01-24 15:37:00,
2013-01-24 10:42:00,60.6,46.2,30.14,WNW,297,3.0,10.0,59,0.00,,,0.00,540.0,meteohub,2013-01-24 15:42:00,
2013-01-24 10:47:00,61.0,46.0,30.14,South,178,3.0,11.0,58,0.00,,,0.00,552.0,meteohub,2013-01-24 15:47:00,
2013-01-24 10:52:00,61.9,46.0,30.15,WSW,247,4.0,13.0,56,0.00,,,0.00,571.0,meteohub,2013-01-24 15:52:00,
2013-01-24 10:57:00,61.9,45.5,30.14,WSW,252,2.0,13.0,55,0.00,,,0.00,580.0,meteohub,2013-01-24 15:57:00,
2013-01-24 11:02:00,62.4,45.5,30.14,West,263,2.0,13.0,54,0.00,,,0.00,585.0,meteohub,2013-01-24 16:02:00,
2013-01-24 11:07:00,62.8,45.0,30.14,WSW,251,6.0,11.0,52,0.00,,,0.00,603.0,meteohub,2013-01-24 16:07:00,
2013-01-24 11:12:00,62.6,44.8,30.14,West,269,5.0,11.0,52,0.00,,,0.00,608.0,meteohub,2013-01-24 16:12:00,
2013-01-24 11:17:00,62.8,43.9,30.14,West,277,2.0,10.0,50,0.00,,,0.00,617.0,meteohub,2013-01-24 16:17:00,
2013-01-24 11:22:00,63.3,43.3,30.13,WNW,299,3.0,10.0,48,0.00,,,0.00,624.0,meteohub,2013-01-24 16:22:00,
2013-01-24 11:27:00,63.5,43.5,30.13,WNW,283,10.0,11.0,48,0.00,,,0.00,628.0,meteohub,2013-01-24 16:27:00,
2013-01-24 11:32:00,63.5,43.5,30.13,NW,317,2.0,11.0,48,0.00,,,0.00,642.0,meteohub,2013-01-24 16:32:00,
2013-01-24 11:37:00,63.7,43.2,30.12,WSW,254,4.0,11.0,47,0.00,,,0.00,635.0,meteohub,2013-01-24 16:37:00,
2013-01-24 11:42:00,64.0,43.3,30.12,NW,325,2.0,11.0,47,0.00,,,0.00,605.0,meteohub,2013-01-24 16:42:00,
2013-01-24 11:47:00,64.4,43.2,30.12,WNW,292,3.0,9.0,46,0.00,,,0.00,656.0,meteohub,2013-01-24 16:47:00,
2013-01-24 11:52:00,64.4,42.1,30.12,West,279,3.0,9.0,44,0.00,,,0.00,659.0,meteohub,2013-01-24 16:52:00,
2013-01-24 11:57:00,64.0,42.3,30.12,WNW,300,2.0,11.0,45,0.00,,,0.00,650.0,meteohub,2013-01-24 16:57:00,
2013-01-24 12:02:00,64.2,42.4,30.12,West,280,5.0,11.0,45,0.00,,,0.00,661.0,meteohub,2013-01-24 17:02:00,
2013-01-24 12:07:00,64.4,42.6,30.12,SSE,159,3.0,11.0,45,0.00,,,0.00,663.0,meteohub,2013-01-24 17:07:00,
2013-01-24 12:12:00,64.9,43.2,30.11,West,261,3.0,10.0,45,0.00,,,0.00,654.0,meteohub,2013-01-24 17:12:00,
2013-01-24 12:17:00,65.1,42.1,30.10,WNW,294,2.0,10.0,43,0.00,,,0.00,661.0,meteohub,2013-01-24 17:17:00,
2013-01-24 12:22:00,65.1,40.8,30.10,West,268,4.0,11.0,41,0.00,,,0.00,659.0,meteohub,2013-01-24 17:22:00,
2013-01-24 12:27:00,65.8,40.8,30.10,SW,215,4.0,11.0,40,0.00,,,0.00,666.0,meteohub,2013-01-24 17:27:00,
2013-01-24 12:32:00,66.0,40.3,30.10,WSW,246,2.0,11.0,39,0.00,,,0.00,657.0,meteohub,2013-01-24 17:32:00,
2013-01-24 12:37:00,66.4,39.9,30.10,WNW,301,5.0,7.0,38,0.00,,,0.00,666.0,meteohub,2013-01-24 17:37:00,
2013-01-24 12:42:00,66.6,39.6,30.11,West,261,3.0,9.0,37,0.00,,,0.00,659.0,meteohub,2013-01-24 17:42:00,
2013-01-24 12:47:00,66.2,39.9,30.10,West,276,2.0,9.0,38,0.00,,,0.00,663.0,meteohub,2013-01-24 17:47:00,
2013-01-24 12:52:00,66.6,39.6,30.10,West,262,6.0,9.0,37,0.00,,,0.00,657.0,meteohub,2013-01-24 17:52:00,
2013-01-24 12:57:00,66.7,39.6,30.11,NNE,30,4.0,9.0,37,0.00,,,0.00,657.0,meteohub,2013-01-24 17:57:00,
2013-01-24 13:02:00,66.9,39.7,30.11,SE,136,1.0,10.0,37,0.00,,,0.00,654.0,meteohub,2013-01-24 18:02:00,
2013-01-24 13:07:00,66.6,39.6,30.10,NW,325,2.0,16.0,37,0.00,,,0.00,647.0,meteohub,2013-01-24 18:07:00,
2013-01-24 13:12:00,66.7,39.6,30.10,NW,317,2.0,16.0,37,0.00,,,0.00,652.0,meteohub,2013-01-24 18:12:00,
2013-01-24 13:17:00,67.3,40.1,30.10,SW,217,5.0,16.0,37,0.00,,,0.00,647.0,meteohub,2013-01-24 18:17:00,
2013-01-24 13:22:00,67.3,38.7,30.11,West,267,5.0,7.0,35,0.00,,,0.00,643.0,meteohub,2013-01-24 18:22:00,
2013-01-24 13:27:00,66.7,38.3,30.10,WNW,296,1.0,8.0,35,0.00,,,0.00,638.0,meteohub,2013-01-24 18:27:00,
2013-01-24 13:32:00,66.7,39.0,30.10,NW,316,3.0,8.0,36,0.00,,,0.00,636.0,meteohub,2013-01-24 18:32:00,
2013-01-24 13:37:00,67.1,39.2,30.10,NNW,339,5.0,8.0,36,0.00,,,0.00,621.0,meteohub,2013-01-24 18:37:00,
2013-01-24 13:42:00,66.9,39.0,30.11,ENE,78,2.0,9.0,36,0.00,,,0.00,497.0,meteohub,2013-01-24 18:42:00,
2013-01-24 13:47:00,66.7,39.0,30.11,NNW,328,4.0,10.0,36,0.00,,,0.00,515.0,meteohub,2013-01-24 18:47:00,
2013-01-24 13:52:00,66.4,38.7,30.11,NW,324,3.0,10.0,36,0.00,,,0.00,388.0,meteohub,2013-01-24 18:52:00,
2013-01-24 13:57:00,66.2,38.5,30.11,ENE,59,2.0,10.0,36,0.00,,,0.00,352.0,meteohub,2013-01-24 18:57:00,
2013-01-24 14:02:00,66.9,39.0,30.11,NE,35,3.0,9.0,36,0.00,,,0.00,534.0,meteohub,2013-01-24 19:02:00,
2013-01-24 14:07:00,66.7,38.3,30.11,NW,322,5.0,10.0,35,0.00,,,0.00,454.0,meteohub,2013-01-24 19:07:00,
2013-01-24 14:12:00,66.4,38.7,30.11,NW,304,7.0,11.0,36,0.00,,,0.00,478.0,meteohub,2013-01-24 19:12:00,
2013-01-24 14:17:00,66.2,37.8,30.12,NNW,342,3.0,11.0,35,0.00,,,0.00,515.0,meteohub,2013-01-24 19:17:00,
2013-01-24 14:22:00,66.0,37.6,30.12,WNW,282,3.0,11.0,35,0.00,,,0.00,489.0,meteohub,2013-01-24 19:22:00,
2013-01-24 14:27:00,66.4,37.9,30.12,WNW,295,1.0,9.0,35,0.00,,,0.00,360.0,meteohub,2013-01-24 19:27:00,
2013-01-24 14:32:00,66.6,38.1,30.12,NW,305,3.0,9.0,35,0.00,,,0.00,434.0,meteohub,2013-01-24 19:32:00,
2013-01-24 14:37:00,66.6,40.1,30.12,NW,313,5.0,11.0,38,0.00,,,0.00,422.0,meteohub,2013-01-24 19:37:00,
2013-01-24 14:42:00,66.4,40.6,30.12,NE,51,1.0,11.0,39,0.00,,,0.00,373.0,meteohub,2013-01-24 19:42:00,
2013-01-24 14:47:00,65.7,40.1,30.13,West,275,5.0,6.0,39,0.00,,,0.00,397.0,meteohub,2013-01-24 19:47:00,
2013-01-24 14:52:00,64.8,39.2,30.12,NE,52,3.0,13.0,39,0.00,,,0.00,250.0,meteohub,2013-01-24 19:52:00,
2013-01-24 14:57:00,64.8,39.9,30.12,NNW,337,4.0,13.0,40,0.00,,,0.00,246.0,meteohub,2013-01-24 19:57:00,
2013-01-24 15:02:00,64.8,39.2,30.13,NW,320,4.0,13.0,39,0.00,,,0.00,211.0,meteohub,2013-01-24 20:02:00,
2013-01-24 15:07:00,64.9,39.4,30.14,NW,323,3.0,8.0,39,0.00,,,0.00,197.0,meteohub,2013-01-24 20:07:00,
2013-01-24 15:12:00,64.6,39.0,30.14,West,277,6.0,7.0,39,0.00,,,0.00,206.0,meteohub,2013-01-24 20:12:00,
2013-01-24 15:17:00,63.1,39.7,30.15,NW,315,3.0,8.0,42,0.00,,,0.00,144.0,meteohub,2013-01-24 20:17:00,
2013-01-24 15:22:00,62.2,40.1,30.16,WNW,293,3.0,9.0,44,0.00,,,0.00,241.0,meteohub,2013-01-24 20:22:00,
2013-01-24 15:27:00,61.3,40.5,30.16,NNW,334,3.0,13.0,46,0.00,,,0.00,146.0,meteohub,2013-01-24 20:27:00,
2013-01-24 15:32:00,60.6,40.3,30.16,NE,42,9.0,13.0,47,0.00,,,0.00,151.0,meteohub,2013-01-24 20:32:00,
2013-01-24 15:37:00,59.4,39.2,30.16,NW,313,4.0,13.0,47,0.00,,,0.00,141.0,meteohub,2013-01-24 20:37:00,
2013-01-24 15:42:00,58.1,39.0,30.17,North,355,4.0,10.0,49,0.00,,,0.00,121.0,meteohub,2013-01-24 20:42:00,
2013-01-24 15:47:00,57.6,38.5,30.17,WNW,285,3.0,10.0,49,0.00,,,0.00,151.0,meteohub,2013-01-24 20:47:00,
2013-01-24 15:52:00,57.4,38.3,30.19,South,184,2.0,10.0,49,0.00,,,0.00,130.0,meteohub,2013-01-24 20:52:00,
2013-01-24 15:57:00,56.7,37.8,30.19,WNW,286,3.0,11.0,49,0.00,,,0.00,84.0,meteohub,2013-01-24 20:57:00,
2013-01-24 16:02:00,56.1,37.8,30.19,East,79,2.0,11.0,50,0.00,,,0.00,121.0,meteohub,2013-01-24 21:02:00,
2013-01-24 16:07:00,55.9,37.0,30.19,NNW,346,1.0,11.0,49,0.00,,,0.00,91.0,meteohub,2013-01-24 21:07:00,
2013-01-24 16:12:00,55.9,36.5,30.19,NW,308,2.0,8.0,48,0.00,,,0.00,72.0,meteohub,2013-01-24 21:12:00,
2013-01-24 16:17:00,55.6,36.1,30.19,NNE,13,1.0,8.0,48,0.00,,,0.00,70.0,meteohub,2013-01-24 21:17:00,
2013-01-24 16:22:00,55.6,36.1,30.20,ENE,74,2.0,8.0,48,0.00,,,0.00,70.0,meteohub,2013-01-24 21:22:00,
2013-01-24 16:28:00,55.2,36.0,30.21,NE,53,7.0,7.0,48,0.00,,,0.00,65.0,meteohub,2013-01-24 21:28:00,
2013-01-24 16:32:00,54.7,35.4,30.19,NE,43,1.0,12.0,48,0.00,,,0.00,70.0,meteohub,2013-01-24 21:32:00,
2013-01-24 16:38:00,54.1,35.4,30.19,South,173,2.0,12.0,49,0.00,,,0.00,72.0,meteohub,2013-01-24 21:38:00,
2013-01-24 16:43:00,54.0,35.2,30.21,SSW,207,2.0,12.0,49,0.00,,,0.00,62.0,meteohub,2013-01-24 21:43:00,
2013-01-24 16:48:00,53.4,34.2,30.21,WNW,284,5.0,10.0,48,0.00,,,0.00,37.0,meteohub,2013-01-24 21:48:00,
2013-01-24 16:53:00,53.1,33.8,30.22,NNW,347,7.0,10.0,48,0.00,,,0.00,32.0,meteohub,2013-01-24 21:53:00,
2013-01-24 16:58:00,52.5,34.0,30.23,NNW,339,3.0,10.0,49,0.00,,,0.00,28.0,meteohub,2013-01-24 21:58:00,
2013-01-24 17:03:00,52.2,33.6,30.23,NNE,26,6.0,10.0,49,0.00,,,0.00,25.0,meteohub,2013-01-24 22:03:00,
2013-01-24 17:08:00,51.4,32.4,30.23,NNE,14,3.0,7.0,48,0.00,,,0.00,21.0,meteohub,2013-01-24 22:08:00,
2013-01-24 17:13:00,50.7,31.8,30.24,West,275,4.0,9.0,48,0.00,,,0.00,21.0,meteohub,2013-01-24 22:13:00,
2013-01-24 17:18:00,50.4,31.5,30.25,ENE,69,8.0,9.0,48,0.00,,,0.00,18.0,meteohub,2013-01-24 22:18:00,
2013-01-24 17:23:00,50.0,30.6,30.26,WNW,288,2.0,8.0,47,0.00,,,0.00,14.0,meteohub,2013-01-24 22:23:00,
2013-01-24 17:28:00,49.6,30.2,30.26,WNW,295,4.0,8.0,47,0.00,,,0.00,11.0,meteohub,2013-01-24 22:28:00,
2013-01-24 17:33:00,49.3,30.4,30.27,North,350,0.0,8.0,48,0.00,,,0.00,9.0,meteohub,2013-01-24 22:33:00,
2013-01-24 17:38:00,48.7,29.8,30.27,West,267,0.0,8.0,48,0.00,,,0.00,5.0,meteohub,2013-01-24 22:38:00,
2013-01-24 17:43:00,48.6,29.3,30.27,SSW,212,1.0,6.0,47,0.00,,,0.00,0.0,meteohub,2013-01-24 22:43:00,
2013-01-24 17:48:00,48.0,28.2,30.28,West,278,1.0,7.0,46,0.00,,,0.00,0.0,meteohub,2013-01-24 22:48:00,
2013-01-24 17:53:00,47.8,28.0,30.28,East,90,5.0,10.0,46,0.00,,,0.00,0.0,meteohub,2013-01-24 22:53:00,
2013-01-24 17:58:00,47.5,27.7,30.28,NE,36,2.0,10.0,46,0.00,,,0.00,0.0,meteohub,2013-01-24 22:58:00,
2013-01-24 18:03:00,47.1,27.9,30.28,ESE,123,1.0,10.0,47,0.00,,,0.00,0.0,meteohub,2013-01-24 23:03:00,
2013-01-24 18:08:00,46.9,27.7,30.29,NNW,344,2.0,9.0,47,0.00,,,0.00,0.0,meteohub,2013-01-24 23:08:00,
2013-01-24 18:13:00,46.8,27.7,30.30,NE,38,0.0,9.0,47,0.00,,,0.00,0.0,meteohub,2013-01-24 23:13:00,
2013-01-24 18:18:00,46.6,27.0,30.30,East,98,1.0,6.0,46,0.00,,,0.00,0.0,meteohub,2013-01-24 23:18:00,
2013-01-24 18:23:00,46.2,27.1,30.30,ENE,63,0.0,6.0,47,0.00,,,0.00,0.0,meteohub,2013-01-24 23:23:00,
2013-01-24 18:28:00,46.0,27.0,30.31,SSW,209,1.0,5.0,47,0.00,,,0.00,0.0,meteohub,2013-01-24 23:28:00,
2013-01-24 18:33:00,45.9,26.8,30.32,North,5,1.0,5.0,47,0.00,,,0.00,0.0,meteohub,2013-01-24 23:33:00,
2013-01-24 18:38:00,45.3,26.8,30.32,NE,46,3.0,5.0,48,0.00,,,0.00,0.0,meteohub,2013-01-24 23:38:00,
2013-01-24 18:43:00,45.3,26.8,30.32,West,266,1.0,3.0,48,0.00,,,0.00,0.0,meteohub,2013-01-24 23:43:00,
2013-01-24 18:48:00,45.1,26.1,30.32,NE,49,1.0,4.0,47,0.00,,,0.00,0.0,meteohub,2013-01-24 23:48:00,
2013-01-24 18:53:00,45.0,25.9,30.33,North,355,1.0,5.0,47,0.00,,,0.00,0.0,meteohub,2013-01-24 23:53:00,
2013-01-24 18:58:00,44.8,25.7,30.33,NE,39,0.0,5.0,47,0.00,,,0.00,0.0,meteohub,2013-01-24 23:58:00,
2013-01-24 19:03:00,44.6,25.7,30.33,NNE,32,1.0,5.0,47,0.00,,,0.00,0.0,meteohub,2013-01-25 00:03:00,
2013-01-24 19:08:00,44.4,25.9,30.34,NE,38,3.0,4.0,48,0.00,,,0.00,0.0,meteohub,2013-01-25 00:08:00,
2013-01-24 19:13:00,44.4,25.5,30.34,NNE,19,1.0,4.0,47,0.00,,,0.00,0.0,meteohub,2013-01-25 00:13:00,
2013-01-24 19:18:00,44.1,25.7,30.34,NNE,13,3.0,4.0,48,0.00,,,0.00,0.0,meteohub,2013-01-25 00:18:00,
2013-01-24 19:23:00,44.1,25.7,30.35,NNW,344,2.0,4.0,48,0.00,,,0.00,0.0,meteohub,2013-01-25 00:23:00,
2013-01-24 19:28:00,43.9,25.5,30.36,NNE,25,2.0,10.0,48,0.00,,,0.00,0.0,meteohub,2013-01-25 00:28:00,
2013-01-24 19:33:00,43.7,24.8,30.36,East,93,2.0,10.0,47,0.00,,,0.00,0.0,meteohub,2013-01-25 00:33:00,
2013-01-24 19:38:00,43.3,24.4,30.36,ESE,111,2.0,10.0,47,0.00,,,0.00,0.0,meteohub,2013-01-25 00:38:00,
2013-01-24 19:43:00,43.2,23.7,30.36,SW,232,1.0,9.0,46,0.00,,,0.00,0.0,meteohub,2013-01-25 00:43:00,
2013-01-24 19:48:00,43.0,23.5,30.37,NW,319,2.0,9.0,46,0.00,,,0.00,0.0,meteohub,2013-01-25 00:48:00,
2013-01-24 19:53:00,42.6,23.4,30.36,ENE,62,4.0,8.0,46,0.00,,,0.00,0.0,meteohub,2013-01-25 00:53:00,
2013-01-24 19:59:00,42.4,23.2,30.37,WNW,286,2.0,8.0,46,0.00,,,0.00,0.0,meteohub,2013-01-25 00:59:00,
2013-01-24 20:04:00,42.3,23.0,30.37,ENE,63,1.0,7.0,46,0.00,,,0.00,0.0,meteohub,2013-01-25 01:04:00,
2013-01-24 20:09:00,42.1,23.4,30.38,NE,55,1.0,7.0,47,0.00,,,0.00,0.0,meteohub,2013-01-25 01:09:00,
2013-01-24 20:14:00,41.9,23.2,30.38,West,281,1.0,8.0,47,0.00,,,0.00,0.0,meteohub,2013-01-25 01:14:00,
2013-01-24 20:19:00,41.7,23.0,30.38,WNW,289,2.0,8.0,47,0.00,,,0.00,0.0,meteohub,2013-01-25 01:19:00,
2013-01-24 20:24:00,41.5,22.8,30.38,NE,55,8.0,8.0,47,0.00,,,0.00,0.0,meteohub,2013-01-25 01:24:00,
2013-01-24 20:29:00,41.4,22.6,30.38,East,96,1.0,8.0,47,0.00,,,0.00,0.0,meteohub,2013-01-25 01:29:00,
2013-01-24 20:34:00,41.2,21.9,30.39,SE,133,1.0,8.0,46,0.00,,,0.00,0.0,meteohub,2013-01-25 01:34:00,
2013-01-24 20:39:00,40.8,22.1,30.40,East,82,2.0,8.0,47,0.00,,,0.00,0.0,meteohub,2013-01-25 01:39:00,
2013-01-24 20:44:00,40.6,21.6,30.40,SE,134,1.0,7.0,46,0.00,,,0.00,0.0,meteohub,2013-01-25 01:44:00,
2013-01-24 20:49:00,40.3,21.2,30.40,ENE,64,3.0,7.0,46,0.00,,,0.00,0.0,meteohub,2013-01-25 01:49:00,
2013-01-24 20:54:00,39.9,20.3,30.40,NE,44,1.0,7.0,45,0.00,,,0.00,0.0,meteohub,2013-01-25 01:54:00,
2013-01-24 20:59:00,39.6,19.4,30.40,SW,228,1.0,7.0,44,0.00,,,0.00,0.0,meteohub,2013-01-25 01:59:00,
2013-01-24 21:04:00,39.4,18.7,30.41,West,278,3.0,7.0,43,0.00,,,0.00,0.0,meteohub,2013-01-25 02:04:00,
2013-01-24 21:09:00,39.0,18.9,30.41,NNE,33,1.0,8.0,44,0.00,,,0.00,0.0,meteohub,2013-01-25 02:09:00,
2013-01-24 21:14:00,39.0,18.5,30.41,NNE,32,2.0,8.0,43,0.00,,,0.00,0.0,meteohub,2013-01-25 02:14:00,
2013-01-24 21:19:00,38.8,18.3,30.41,NNE,19,1.0,8.0,43,0.00,,,0.00,0.0,meteohub,2013-01-25 02:19:00,
2013-01-24 21:24:00,38.7,18.7,30.42,NE,54,3.0,7.0,44,0.00,,,0.00,0.0,meteohub,2013-01-25 02:24:00,
2013-01-24 21:29:00,38.5,18.5,30.42,WNW,298,2.0,7.0,44,0.00,,,0.00,0.0,meteohub,2013-01-25 02:29:00,
2013-01-24 21:34:00,38.3,18.9,30.42,NW,309,1.0,6.0,45,0.00,,,0.00,0.0,meteohub,2013-01-25 02:34:00,
2013-01-24 21:39:00,37.9,18.5,30.42,West,269,2.0,6.0,45,0.00,,,0.00,0.0,meteohub,2013-01-25 02:39:00,
2013-01-24 21:44:00,37.8,18.9,30.42,NE,46,1.0,8.0,46,0.00,,,0.00,0.0,meteohub,2013-01-25 02:44:00,
2013-01-24 21:49:00,37.8,18.9,30.42,East,80,2.0,8.0,46,0.00,,,0.00,0.0,meteohub,2013-01-25 02:49:00,
2013-01-24 21:54:00,37.6,18.7,30.43,NNE,25,1.0,6.0,46,0.00,,,0.00,0.0,meteohub,2013-01-25 02:54:00,
2013-01-24 21:59:00,37.4,18.5,30.43,NE,46,0.0,6.0,46,0.00,,,0.00,0.0,meteohub,2013-01-25 02:59:00,
2013-01-24 22:04:00,37.2,18.3,30.43,East,81,0.0,6.0,46,0.00,,,0.00,0.0,meteohub,2013-01-25 03:04:00,
2013-01-24 22:09:00,37.0,18.1,30.43,ENE,67,2.0,6.0,46,0.00,,,0.00,0.0,meteohub,2013-01-25 03:09:00,
2013-01-24 22:14:00,36.9,18.5,30.43,NW,308,2.0,5.0,47,0.00,,,0.00,0.0,meteohub,2013-01-25 03:14:00,
2013-01-24 22:19:00,36.9,18.5,30.43,NNE,32,0.0,5.0,47,0.00,,,0.00,0.0,meteohub,2013-01-25 03:19:00,
2013-01-24 22:24:00,36.7,18.9,30.43,NW,317,2.0,5.0,48,0.00,,,0.00,0.0,meteohub,2013-01-25 03:24:00,
2013-01-24 22:29:00,36.5,19.2,30.44,East,97,0.0,7.0,49,0.00,,,0.00,0.0,meteohub,2013-01-25 03:29:00,
2013-01-24 22:34:00,36.3,19.4,30.45,NNW,340,1.0,7.0,50,0.00,,,0.00,0.0,meteohub,2013-01-25 03:34:00,
2013-01-24 22:39:00,36.3,19.4,30.46,ENE,58,0.0,7.0,50,0.00,,,0.00,0.0,meteohub,2013-01-25 03:39:00,
2013-01-24 22:44:00,36.1,19.2,30.44,ESE,114,0.0,5.0,50,0.00,,,0.00,0.0,meteohub,2013-01-25 03:44:00,
2013-01-24 22:49:00,36.0,19.6,30.44,ENE,58,1.0,7.0,51,0.00,,,0.00,0.0,meteohub,2013-01-25 03:49:00,
2013-01-24 22:54:00,35.8,19.9,30.45,NE,55,3.0,7.0,52,0.00,,,0.00,0.0,meteohub,2013-01-25 03:54:00,
2013-01-24 22:59:00,35.4,19.9,30.45,West,272,2.0,8.0,53,0.00,,,0.00,0.0,meteohub,2013-01-25 03:59:00,
2013-01-24 23:04:00,35.2,20.3,30.45,NW,308,1.0,8.0,54,0.00,,,0.00,0.0,meteohub,2013-01-25 04:04:00,
2013-01-24 23:09:00,35.2,20.3,30.45,North,10,3.0,8.0,54,0.00,,,0.00,0.0,meteohub,2013-01-25 04:09:00,
2013-01-24 23:14:00,35.1,20.5,30.45,ENE,63,2.0,8.0,55,0.00,,,0.00,0.0,meteohub,2013-01-25 04:14:00,
2013-01-24 23:19:00,34.9,20.3,30.46,NE,51,5.0,7.0,55,0.00,,,0.00,0.0,meteohub,2013-01-25 04:19:00,
2013-01-24 23:24:00,34.7,20.1,30.45,NE,48,1.0,7.0,55,0.00,,,0.00,0.0,meteohub,2013-01-25 04:24:00,
2013-01-24 23:30:00,34.5,19.9,30.45,NE,34,1.0,7.0,55,0.00,,,0.00,0.0,meteohub,2013-01-25 04:30:00,
2013-01-24 23:34:00,34.3,19.8,30.45,NE,52,1.0,9.0,55,0.00,,,0.00,0.0,meteohub,2013-01-25 04:34:00,
2013-01-24 23:40:00,34.2,19.8,30.45,WSW,252,3.0,9.0,55,0.00,,,0.00,0.0,meteohub,2013-01-25 04:40:00,
2013-01-24 23:44:00,34.0,19.9,30.45,WNW,292,0.0,9.0,56,0.00,,,0.00,0.0,meteohub,2013-01-25 04:44:00,
2013-01-24 23:49:00,33.6,19.6,30.44,WNW,296,1.0,4.0,56,0.00,,,0.00,0.0,meteohub,2013-01-25 04:49:00,
2013-01-24 23:55:00,33.4,19.4,30.44,NW,326,1.0,4.0,56,0.00,,,0.00,0.0,meteohub,2013-01-25 04:55:00,